sensor_id;sensor_type;location;lat;lon;timestamp;P1;durP1;ratioP1;P2;durP2;ratioP2
36195;SDS011;22237;51.974;4.616;2023-09-30T00:01:36;4.57;;;2.30;;
36195;SDS011;22237;51.974;4.616;2023-09-30T00:04:01;9.23;;;2.80;;
36195;SDS011;22237;51.974;4.616;2023-09-30T00:06:28;7.35;;;2.92;;
36195;SDS011;22237;51.974;4.616;2023-09-30T00:08:53;8.10;;;2.65;;
36195;SDS011;22237;51.974;4.616;2023-09-30T00:11:19;7.33;;;2.93;;
36195;SDS011;22237;51.974;4.616;2023-09-30T00:13:44;8.05;;;2.97;;
36195;SDS011;22237;51.974;4.616;2023-09-30T00:16:10;7.22;;;3.00;;
36195;SDS011;22237;51.974;4.616;2023-09-30T00:18:36;11.60;;;3.07;;
36195;SDS011;22237;51.974;4.616;2023-09-30T00:21:01;9.47;;;2.77;;
36195;SDS011;22237;51.974;4.616;2023-09-30T00:23:26;6.18;;;2.72;;
36195;SDS011;22237;51.974;4.616;2023-09-30T00:25:51;5.22;;;3.15;;
36195;SDS011;22237;51.974;4.616;2023-09-30T00:28:16;6.78;;;2.75;;
36195;SDS011;22237;51.974;4.616;2023-09-30T00:30:42;10.33;;;3.20;;
36195;SDS011;22237;51.974;4.616;2023-09-30T00:33:07;12.03;;;2.90;;
36195;SDS011;22237;51.974;4.616;2023-09-30T00:35:33;5.63;;;2.58;;
36195;SDS011;22237;51.974;4.616;2023-09-30T00:37:58;9.23;;;2.60;;
36195;SDS011;22237;51.974;4.616;2023-09-30T00:40:23;12.00;;;2.92;;
36195;SDS011;22237;51.974;4.616;2023-09-30T00:42:48;4.77;;;3.00;;
36195;SDS011;22237;51.974;4.616;2023-09-30T00:45:14;11.27;;;2.92;;
36195;SDS011;22237;51.974;4.616;2023-09-30T00:47:39;8.00;;;2.97;;
36195;SDS011;22237;51.974;4.616;2023-09-30T00:50:05;7.82;;;3.35;;
36195;SDS011;22237;51.974;4.616;2023-09-30T00:52:32;10.00;;;2.75;;
36195;SDS011;22237;51.974;4.616;2023-09-30T00:54:58;5.35;;;3.00;;
36195;SDS011;22237;51.974;4.616;2023-09-30T00:57:23;7.55;;;2.53;;
36195;SDS011;22237;51.974;4.616;2023-09-30T00:59:49;6.40;;;2.63;;
36195;SDS011;22237;51.974;4.616;2023-09-30T01:02:15;8.63;;;2.85;;
36195;SDS011;22237;51.974;4.616;2023-09-30T01:04:40;8.30;;;2.95;;
36195;SDS011;22237;51.974;4.616;2023-09-30T01:07:06;8.00;;;3.40;;
36195;SDS011;22237;51.974;4.616;2023-09-30T01:09:32;4.80;;;2.72;;
36195;SDS011;22237;51.974;4.616;2023-09-30T01:11:58;8.38;;;2.88;;
36195;SDS011;22237;51.974;4.616;2023-09-30T01:14:24;8.37;;;3.20;;
36195;SDS011;22237;51.974;4.616;2023-09-30T01:16:50;7.13;;;3.15;;
36195;SDS011;22237;51.974;4.616;2023-09-30T01:19:15;9.43;;;3.25;;
36195;SDS011;22237;51.974;4.616;2023-09-30T01:21:41;8.77;;;3.33;;
36195;SDS011;22237;51.974;4.616;2023-09-30T01:24:06;6.93;;;3.35;;
36195;SDS011;22237;51.974;4.616;2023-09-30T01:26:32;12.23;;;4.07;;
36195;SDS011;22237;51.974;4.616;2023-09-30T01:28:58;8.25;;;3.35;;
36195;SDS011;22237;51.974;4.616;2023-09-30T01:31:23;7.88;;;3.13;;
36195;SDS011;22237;51.974;4.616;2023-09-30T01:33:48;8.77;;;3.17;;
36195;SDS011;22237;51.974;4.616;2023-09-30T01:36:13;8.10;;;3.47;;
36195;SDS011;22237;51.974;4.616;2023-09-30T01:38:39;7.10;;;3.37;;
36195;SDS011;22237;51.974;4.616;2023-09-30T01:41:04;6.50;;;3.15;;
36195;SDS011;22237;51.974;4.616;2023-09-30T01:43:29;11.55;;;3.90;;
36195;SDS011;22237;51.974;4.616;2023-09-30T01:45:55;9.10;;;3.88;;
36195;SDS011;22237;51.974;4.616;2023-09-30T01:48:20;13.60;;;3.78;;
36195;SDS011;22237;51.974;4.616;2023-09-30T01:50:45;9.13;;;3.90;;
36195;SDS011;22237;51.974;4.616;2023-09-30T01:53:11;15.93;;;4.13;;
36195;SDS011;22237;51.974;4.616;2023-09-30T01:55:36;7.33;;;3.47;;
36195;SDS011;22237;51.974;4.616;2023-09-30T01:58:02;8.27;;;4.03;;
36195;SDS011;22237;51.974;4.616;2023-09-30T02:00:27;12.18;;;3.83;;
36195;SDS011;22237;51.974;4.616;2023-09-30T02:02:54;10.73;;;5.53;;
36195;SDS011;22237;51.974;4.616;2023-09-30T02:05:19;11.23;;;4.45;;
36195;SDS011;22237;51.974;4.616;2023-09-30T02:07:44;11.77;;;4.00;;
36195;SDS011;22237;51.974;4.616;2023-09-30T02:10:10;10.88;;;4.13;;
36195;SDS011;22237;51.974;4.616;2023-09-30T02:12:35;10.95;;;5.45;;
36195;SDS011;22237;51.974;4.616;2023-09-30T02:15:02;13.60;;;4.55;;
36195;SDS011;22237;51.974;4.616;2023-09-30T02:17:28;11.07;;;4.55;;
36195;SDS011;22237;51.974;4.616;2023-09-30T02:19:53;7.43;;;4.30;;
36195;SDS011;22237;51.974;4.616;2023-09-30T02:22:19;14.07;;;4.65;;
36195;SDS011;22237;51.974;4.616;2023-09-30T02:24:45;10.93;;;5.38;;
36195;SDS011;22237;51.974;4.616;2023-09-30T02:27:10;11.55;;;4.30;;
36195;SDS011;22237;51.974;4.616;2023-09-30T02:29:35;10.57;;;4.10;;
36195;SDS011;22237;51.974;4.616;2023-09-30T02:32:00;11.87;;;4.33;;
36195;SDS011;22237;51.974;4.616;2023-09-30T02:34:26;14.98;;;4.95;;
36195;SDS011;22237;51.974;4.616;2023-09-30T02:36:51;14.27;;;4.55;;
36195;SDS011;22237;51.974;4.616;2023-09-30T02:39:16;8.52;;;4.60;;
36195;SDS011;22237;51.974;4.616;2023-09-30T02:41:42;15.00;;;5.40;;
36195;SDS011;22237;51.974;4.616;2023-09-30T02:44:08;9.90;;;4.45;;
36195;SDS011;22237;51.974;4.616;2023-09-30T02:46:33;8.88;;;4.72;;
36195;SDS011;22237;51.974;4.616;2023-09-30T02:49:00;9.20;;;4.83;;
36195;SDS011;22237;51.974;4.616;2023-09-30T02:51:26;15.98;;;5.60;;
36195;SDS011;22237;51.974;4.616;2023-09-30T02:53:51;15.55;;;4.85;;
36195;SDS011;22237;51.974;4.616;2023-09-30T02:56:16;10.90;;;4.82;;
36195;SDS011;22237;51.974;4.616;2023-09-30T02:58:42;16.38;;;5.47;;
36195;SDS011;22237;51.974;4.616;2023-09-30T03:01:07;10.02;;;4.85;;
36195;SDS011;22237;51.974;4.616;2023-09-30T03:03:34;11.57;;;5.55;;
36195;SDS011;22237;51.974;4.616;2023-09-30T03:06:00;10.55;;;5.35;;
36195;SDS011;22237;51.974;4.616;2023-09-30T03:08:25;14.15;;;6.00;;
36195;SDS011;22237;51.974;4.616;2023-09-30T03:10:50;16.25;;;5.07;;
36195;SDS011;22237;51.974;4.616;2023-09-30T03:13:16;12.33;;;5.43;;
36195;SDS011;22237;51.974;4.616;2023-09-30T03:15:43;14.05;;;5.15;;
36195;SDS011;22237;51.974;4.616;2023-09-30T03:18:08;13.25;;;5.85;;
36195;SDS011;22237;51.974;4.616;2023-09-30T03:20:34;11.90;;;6.00;;
36195;SDS011;22237;51.974;4.616;2023-09-30T03:22:59;10.48;;;5.93;;
36195;SDS011;22237;51.974;4.616;2023-09-30T03:25:24;13.10;;;4.97;;
36195;SDS011;22237;51.974;4.616;2023-09-30T03:27:49;16.05;;;5.93;;
36195;SDS011;22237;51.974;4.616;2023-09-30T03:30:16;16.60;;;5.78;;
36195;SDS011;22237;51.974;4.616;2023-09-30T03:32:41;11.68;;;6.95;;
36195;SDS011;22237;51.974;4.616;2023-09-30T03:35:07;19.40;;;6.32;;
36195;SDS011;22237;51.974;4.616;2023-09-30T03:37:35;13.23;;;6.05;;
36195;SDS011;22237;51.974;4.616;2023-09-30T03:40:02;16.73;;;7.07;;
36195;SDS011;22237;51.974;4.616;2023-09-30T03:42:36;11.38;;;5.97;;
36195;SDS011;22237;51.974;4.616;2023-09-30T03:45:03;14.52;;;6.35;;
36195;SDS011;22237;51.974;4.616;2023-09-30T03:47:31;13.40;;;6.03;;
36195;SDS011;22237;51.974;4.616;2023-09-30T03:49:56;14.40;;;6.25;;
36195;SDS011;22237;51.974;4.616;2023-09-30T03:52:24;16.20;;;6.43;;
36195;SDS011;22237;51.974;4.616;2023-09-30T03:54:50;21.55;;;6.07;;
36195;SDS011;22237;51.974;4.616;2023-09-30T03:57:15;17.05;;;6.30;;
36195;SDS011;22237;51.974;4.616;2023-09-30T03:59:41;21.52;;;7.22;;
36195;SDS011;22237;51.974;4.616;2023-09-30T04:02:06;14.83;;;6.30;;
36195;SDS011;22237;51.974;4.616;2023-09-30T04:04:33;19.88;;;5.97;;
36195;SDS011;22237;51.974;4.616;2023-09-30T04:06:59;17.23;;;6.07;;
36195;SDS011;22237;51.974;4.616;2023-09-30T04:09:24;15.80;;;6.90;;
36195;SDS011;22237;51.974;4.616;2023-09-30T04:11:50;13.00;;;5.75;;
36195;SDS011;22237;51.974;4.616;2023-09-30T04:14:16;17.08;;;6.45;;
36195;SDS011;22237;51.974;4.616;2023-09-30T04:16:42;13.50;;;5.55;;
36195;SDS011;22237;51.974;4.616;2023-09-30T04:19:08;11.32;;;5.45;;
36195;SDS011;22237;51.974;4.616;2023-09-30T04:21:35;16.73;;;6.43;;
36195;SDS011;22237;51.974;4.616;2023-09-30T04:24:00;11.55;;;5.10;;
36195;SDS011;22237;51.974;4.616;2023-09-30T04:26:25;8.75;;;5.28;;
36195;SDS011;22237;51.974;4.616;2023-09-30T04:28:51;13.23;;;5.55;;
36195;SDS011;22237;51.974;4.616;2023-09-30T04:31:16;20.83;;;5.22;;
36195;SDS011;22237;51.974;4.616;2023-09-30T04:33:43;12.88;;;6.00;;
36195;SDS011;22237;51.974;4.616;2023-09-30T04:36:08;12.43;;;5.25;;
36195;SDS011;22237;51.974;4.616;2023-09-30T04:38:34;18.73;;;5.50;;
36195;SDS011;22237;51.974;4.616;2023-09-30T04:40:59;18.15;;;5.70;;
36195;SDS011;22237;51.974;4.616;2023-09-30T04:43:25;16.92;;;6.43;;
36195;SDS011;22237;51.974;4.616;2023-09-30T04:45:54;14.63;;;5.95;;
36195;SDS011;22237;51.974;4.616;2023-09-30T04:48:21;16.67;;;6.22;;
36195;SDS011;22237;51.974;4.616;2023-09-30T04:50:47;10.57;;;5.80;;
36195;SDS011;22237;51.974;4.616;2023-09-30T04:53:12;14.13;;;6.43;;
36195;SDS011;22237;51.974;4.616;2023-09-30T04:55:38;14.07;;;5.80;;
36195;SDS011;22237;51.974;4.616;2023-09-30T04:58:03;16.23;;;6.85;;
36195;SDS011;22237;51.974;4.616;2023-09-30T05:00:29;13.48;;;6.22;;
36195;SDS011;22237;51.974;4.616;2023-09-30T05:02:55;10.55;;;5.55;;
36195;SDS011;22237;51.974;4.616;2023-09-30T05:05:21;10.88;;;6.00;;
36195;SDS011;22237;51.974;4.616;2023-09-30T05:07:46;15.52;;;6.18;;
36195;SDS011;22237;51.974;4.616;2023-09-30T05:10:12;12.45;;;6.20;;
36195;SDS011;22237;51.974;4.616;2023-09-30T05:12:40;17.67;;;6.20;;
36195;SDS011;22237;51.974;4.616;2023-09-30T05:15:10;11.40;;;6.00;;
36195;SDS011;22237;51.974;4.616;2023-09-30T05:17:35;11.93;;;5.78;;
36195;SDS011;22237;51.974;4.616;2023-09-30T05:20:01;13.10;;;6.28;;
36195;SDS011;22237;51.974;4.616;2023-09-30T05:22:28;13.10;;;5.72;;
36195;SDS011;22237;51.974;4.616;2023-09-30T05:24:54;21.13;;;5.75;;
36195;SDS011;22237;51.974;4.616;2023-09-30T05:27:21;12.23;;;6.13;;
36195;SDS011;22237;51.974;4.616;2023-09-30T05:29:46;11.05;;;5.68;;
36195;SDS011;22237;51.974;4.616;2023-09-30T05:32:12;15.57;;;6.28;;
36195;SDS011;22237;51.974;4.616;2023-09-30T05:34:38;9.50;;;5.47;;
36195;SDS011;22237;51.974;4.616;2023-09-30T05:37:04;13.18;;;6.05;;
36195;SDS011;22237;51.974;4.616;2023-09-30T05:39:29;15.07;;;6.97;;
36195;SDS011;22237;51.974;4.616;2023-09-30T05:41:56;14.43;;;6.05;;
36195;SDS011;22237;51.974;4.616;2023-09-30T05:44:21;13.98;;;6.22;;
36195;SDS011;22237;51.974;4.616;2023-09-30T05:46:47;10.10;;;5.65;;
36195;SDS011;22237;51.974;4.616;2023-09-30T05:49:12;13.30;;;6.55;;
36195;SDS011;22237;51.974;4.616;2023-09-30T05:51:39;22.75;;;6.90;;
36195;SDS011;22237;51.974;4.616;2023-09-30T05:54:05;15.05;;;7.45;;
36195;SDS011;22237;51.974;4.616;2023-09-30T05:56:32;14.77;;;6.65;;
36195;SDS011;22237;51.974;4.616;2023-09-30T05:58:58;22.75;;;6.68;;
36195;SDS011;22237;51.974;4.616;2023-09-30T06:01:23;20.48;;;7.05;;
36195;SDS011;22237;51.974;4.616;2023-09-30T06:03:49;15.52;;;6.70;;
36195;SDS011;22237;51.974;4.616;2023-09-30T06:06:15;19.47;;;7.07;;
36195;SDS011;22237;51.974;4.616;2023-09-30T06:08:43;18.15;;;7.72;;
36195;SDS011;22237;51.974;4.616;2023-09-30T06:11:19;12.38;;;7.13;;
36195;SDS011;22237;51.974;4.616;2023-09-30T06:13:48;19.80;;;8.07;;
36195;SDS011;22237;51.974;4.616;2023-09-30T06:16:14;22.75;;;7.40;;
36195;SDS011;22237;51.974;4.616;2023-09-30T06:18:39;26.17;;;7.80;;
36195;SDS011;22237;51.974;4.616;2023-09-30T06:21:04;20.27;;;8.23;;
36195;SDS011;22237;51.974;4.616;2023-09-30T06:23:30;17.92;;;7.95;;
36195;SDS011;22237;51.974;4.616;2023-09-30T06:25:55;16.63;;;7.82;;
36195;SDS011;22237;51.974;4.616;2023-09-30T06:28:21;20.38;;;7.85;;
36195;SDS011;22237;51.974;4.616;2023-09-30T06:30:51;22.70;;;9.05;;
36195;SDS011;22237;51.974;4.616;2023-09-30T06:33:16;18.25;;;8.20;;
36195;SDS011;22237;51.974;4.616;2023-09-30T06:35:41;15.88;;;7.93;;
36195;SDS011;22237;51.974;4.616;2023-09-30T06:38:15;21.27;;;7.70;;
36195;SDS011;22237;51.974;4.616;2023-09-30T06:40:40;27.55;;;9.52;;
36195;SDS011;22237;51.974;4.616;2023-09-30T06:43:07;18.40;;;9.02;;
36195;SDS011;22237;51.974;4.616;2023-09-30T06:45:33;17.23;;;8.80;;
36195;SDS011;22237;51.974;4.616;2023-09-30T06:47:58;18.15;;;8.25;;
36195;SDS011;22237;51.974;4.616;2023-09-30T06:50:23;18.73;;;8.73;;
36195;SDS011;22237;51.974;4.616;2023-09-30T06:52:49;20.95;;;9.25;;
36195;SDS011;22237;51.974;4.616;2023-09-30T06:55:14;19.00;;;8.15;;
36195;SDS011;22237;51.974;4.616;2023-09-30T06:57:39;18.98;;;8.73;;
36195;SDS011;22237;51.974;4.616;2023-09-30T07:00:08;16.52;;;8.85;;
36195;SDS011;22237;51.974;4.616;2023-09-30T07:02:34;17.85;;;8.98;;
36195;SDS011;22237;51.974;4.616;2023-09-30T07:04:59;21.02;;;9.80;;
36195;SDS011;22237;51.974;4.616;2023-09-30T07:07:25;30.00;;;9.60;;
36195;SDS011;22237;51.974;4.616;2023-09-30T07:09:50;16.87;;;9.33;;
36195;SDS011;22237;51.974;4.616;2023-09-30T07:12:15;19.50;;;9.77;;
36195;SDS011;22237;51.974;4.616;2023-09-30T07:14:40;23.33;;;10.57;;
36195;SDS011;22237;51.974;4.616;2023-09-30T07:17:06;16.77;;;8.87;;
36195;SDS011;22237;51.974;4.616;2023-09-30T07:19:31;21.00;;;8.33;;
36195;SDS011;22237;51.974;4.616;2023-09-30T07:21:56;21.20;;;10.40;;
36195;SDS011;22237;51.974;4.616;2023-09-30T07:24:21;21.10;;;10.10;;
36195;SDS011;22237;51.974;4.616;2023-09-30T07:26:46;26.73;;;9.80;;
36195;SDS011;22237;51.974;4.616;2023-09-30T07:29:12;20.27;;;10.80;;
36195;SDS011;22237;51.974;4.616;2023-09-30T07:31:37;23.38;;;10.05;;
36195;SDS011;22237;51.974;4.616;2023-09-30T07:34:02;32.10;;;9.85;;
36195;SDS011;22237;51.974;4.616;2023-09-30T07:36:28;16.58;;;8.68;;
36195;SDS011;22237;51.974;4.616;2023-09-30T07:38:53;26.60;;;9.27;;
36195;SDS011;22237;51.974;4.616;2023-09-30T07:41:19;25.63;;;9.93;;
36195;SDS011;22237;51.974;4.616;2023-09-30T07:43:44;19.70;;;9.55;;
36195;SDS011;22237;51.974;4.616;2023-09-30T07:46:09;21.33;;;9.77;;
36195;SDS011;22237;51.974;4.616;2023-09-30T07:48:34;18.98;;;9.02;;
36195;SDS011;22237;51.974;4.616;2023-09-30T07:51:00;14.63;;;8.77;;
36195;SDS011;22237;51.974;4.616;2023-09-30T07:53:25;20.67;;;8.63;;
36195;SDS011;22237;51.974;4.616;2023-09-30T07:55:50;19.17;;;8.10;;
36195;SDS011;22237;51.974;4.616;2023-09-30T07:58:16;18.92;;;8.25;;
36195;SDS011;22237;51.974;4.616;2023-09-30T08:00:41;15.77;;;7.38;;
36195;SDS011;22237;51.974;4.616;2023-09-30T08:03:06;15.50;;;8.07;;
36195;SDS011;22237;51.974;4.616;2023-09-30T08:05:31;17.27;;;8.40;;
36195;SDS011;22237;51.974;4.616;2023-09-30T08:07:57;14.60;;;8.07;;
36195;SDS011;22237;51.974;4.616;2023-09-30T08:10:22;21.17;;;9.25;;
36195;SDS011;22237;51.974;4.616;2023-09-30T08:12:47;15.20;;;8.13;;
36195;SDS011;22237;51.974;4.616;2023-09-30T08:15:14;20.77;;;8.07;;
36195;SDS011;22237;51.974;4.616;2023-09-30T08:17:40;13.70;;;7.15;;
36195;SDS011;22237;51.974;4.616;2023-09-30T08:20:05;29.60;;;9.77;;
36195;SDS011;22237;51.974;4.616;2023-09-30T08:22:31;15.80;;;7.05;;
36195;SDS011;22237;51.974;4.616;2023-09-30T08:24:56;16.30;;;6.13;;
36195;SDS011;22237;51.974;4.616;2023-09-30T08:27:21;15.77;;;7.18;;
36195;SDS011;22237;51.974;4.616;2023-09-30T08:29:49;14.18;;;5.93;;
36195;SDS011;22237;51.974;4.616;2023-09-30T08:32:14;15.32;;;6.10;;
36195;SDS011;22237;51.974;4.616;2023-09-30T08:34:39;17.40;;;6.45;;
36195;SDS011;22237;51.974;4.616;2023-09-30T08:37:05;10.98;;;6.15;;
36195;SDS011;22237;51.974;4.616;2023-09-30T08:39:30;18.70;;;6.53;;
36195;SDS011;22237;51.974;4.616;2023-09-30T08:41:55;10.43;;;5.73;;
36195;SDS011;22237;51.974;4.616;2023-09-30T08:44:21;16.27;;;5.78;;
36195;SDS011;22237;51.974;4.616;2023-09-30T08:46:46;17.60;;;6.20;;
36195;SDS011;22237;51.974;4.616;2023-09-30T08:49:12;14.00;;;6.40;;
36195;SDS011;22237;51.974;4.616;2023-09-30T08:51:39;19.75;;;6.10;;
36195;SDS011;22237;51.974;4.616;2023-09-30T08:54:04;10.88;;;6.18;;
36195;SDS011;22237;51.974;4.616;2023-09-30T08:56:31;13.85;;;5.82;;
36195;SDS011;22237;51.974;4.616;2023-09-30T08:58:59;9.95;;;4.32;;
36195;SDS011;22237;51.974;4.616;2023-09-30T09:01:25;16.75;;;5.35;;
36195;SDS011;22237;51.974;4.616;2023-09-30T09:03:51;11.40;;;4.88;;
36195;SDS011;22237;51.974;4.616;2023-09-30T09:06:21;12.85;;;4.28;;
36195;SDS011;22237;51.974;4.616;2023-09-30T09:08:46;14.88;;;5.38;;
36195;SDS011;22237;51.974;4.616;2023-09-30T09:11:12;7.68;;;3.83;;
36195;SDS011;22237;51.974;4.616;2023-09-30T09:13:46;13.00;;;4.57;;
36195;SDS011;22237;51.974;4.616;2023-09-30T09:16:11;8.75;;;4.07;;
36195;SDS011;22237;51.974;4.616;2023-09-30T09:18:37;11.93;;;3.67;;
36195;SDS011;22237;51.974;4.616;2023-09-30T09:21:09;19.35;;;4.38;;
36195;SDS011;22237;51.974;4.616;2023-09-30T09:23:38;15.38;;;4.25;;
36195;SDS011;22237;51.974;4.616;2023-09-30T09:26:03;8.82;;;3.40;;
36195;SDS011;22237;51.974;4.616;2023-09-30T09:28:34;8.70;;;3.28;;
36195;SDS011;22237;51.974;4.616;2023-09-30T09:31:01;8.00;;;3.17;;
36195;SDS011;22237;51.974;4.616;2023-09-30T09:33:34;7.03;;;3.35;;
36195;SDS011;22237;51.974;4.616;2023-09-30T09:36:00;8.88;;;2.85;;
36195;SDS011;22237;51.974;4.616;2023-09-30T09:38:25;8.50;;;2.87;;
36195;SDS011;22237;51.974;4.616;2023-09-30T09:40:50;11.50;;;3.90;;
36195;SDS011;22237;51.974;4.616;2023-09-30T09:43:16;7.57;;;2.73;;
36195;SDS011;22237;51.974;4.616;2023-09-30T09:45:41;11.27;;;2.60;;
36195;SDS011;22237;51.974;4.616;2023-09-30T09:48:08;6.43;;;2.70;;
36195;SDS011;22237;51.974;4.616;2023-09-30T09:50:34;9.95;;;2.72;;
36195;SDS011;22237;51.974;4.616;2023-09-30T09:53:01;6.90;;;2.08;;
36195;SDS011;22237;51.974;4.616;2023-09-30T09:55:27;9.85;;;3.00;;
36195;SDS011;22237;51.974;4.616;2023-09-30T09:57:53;12.57;;;3.05;;
36195;SDS011;22237;51.974;4.616;2023-09-30T10:00:20;13.30;;;2.70;;
36195;SDS011;22237;51.974;4.616;2023-09-30T10:02:46;12.15;;;3.10;;
36195;SDS011;22237;51.974;4.616;2023-09-30T10:05:12;7.88;;;1.98;;
36195;SDS011;22237;51.974;4.616;2023-09-30T10:07:38;14.43;;;2.08;;
36195;SDS011;22237;51.974;4.616;2023-09-30T10:10:06;9.38;;;1.98;;
36195;SDS011;22237;51.974;4.616;2023-09-30T10:12:38;8.90;;;2.17;;
36195;SDS011;22237;51.974;4.616;2023-09-30T10:15:46;4.13;;;1.90;;
36195;SDS011;22237;51.974;4.616;2023-09-30T10:18:05;8.80;;;2.00;;
36195;SDS011;22237;51.974;4.616;2023-09-30T10:20:35;8.60;;;2.30;;
36195;SDS011;22237;51.974;4.616;2023-09-30T10:23:22;7.68;;;2.45;;
36195;SDS011;22237;51.974;4.616;2023-09-30T10:25:47;8.93;;;1.80;;
36195;SDS011;22237;51.974;4.616;2023-09-30T10:36:28;5.17;;;1.87;;
36195;SDS011;22237;51.974;4.616;2023-09-30T10:38:54;9.30;;;1.88;;
36195;SDS011;22237;51.974;4.616;2023-09-30T10:46:46;5.18;;;1.70;;
36195;SDS011;22237;51.974;4.616;2023-09-30T10:49:30;5.77;;;1.60;;
36195;SDS011;22237;51.974;4.616;2023-09-30T10:52:00;4.20;;;1.58;;
36195;SDS011;22237;51.974;4.616;2023-09-30T10:54:32;9.23;;;1.88;;
36195;SDS011;22237;51.974;4.616;2023-09-30T10:56:58;3.63;;;1.27;;
36195;SDS011;22237;51.974;4.616;2023-09-30T10:59:27;2.53;;;1.63;;
36195;SDS011;22237;51.974;4.616;2023-09-30T11:01:53;8.00;;;1.83;;
36195;SDS011;22237;51.974;4.616;2023-09-30T11:04:18;5.53;;;1.50;;
36195;SDS011;22237;51.974;4.616;2023-09-30T11:06:44;3.58;;;1.30;;
36195;SDS011;22237;51.974;4.616;2023-09-30T11:09:10;11.32;;;1.92;;
36195;SDS011;22237;51.974;4.616;2023-09-30T11:11:40;5.28;;;1.50;;
36195;SDS011;22237;51.974;4.616;2023-09-30T11:14:22;10.85;;;2.13;;
36195;SDS011;22237;51.974;4.616;2023-09-30T11:16:48;8.90;;;2.00;;
36195;SDS011;22237;51.974;4.616;2023-09-30T11:19:14;5.90;;;1.98;;
36195;SDS011;22237;51.974;4.616;2023-09-30T11:21:43;10.32;;;2.03;;
36195;SDS011;22237;51.974;4.616;2023-09-30T11:24:09;6.00;;;1.98;;
36195;SDS011;22237;51.974;4.616;2023-09-30T11:26:34;7.00;;;2.15;;
36195;SDS011;22237;51.974;4.616;2023-09-30T11:29:10;7.90;;;1.92;;
36195;SDS011;22237;51.974;4.616;2023-09-30T11:31:39;7.72;;;1.92;;
36195;SDS011;22237;51.974;4.616;2023-09-30T11:34:05;4.15;;;1.45;;
36195;SDS011;22237;51.974;4.616;2023-09-30T11:36:33;6.97;;;1.42;;
36195;SDS011;22237;51.974;4.616;2023-09-30T11:38:58;7.30;;;2.30;;
36195;SDS011;22237;51.974;4.616;2023-09-30T11:41:32;3.20;;;1.50;;
36195;SDS011;22237;51.974;4.616;2023-09-30T11:43:58;7.07;;;1.70;;
36195;SDS011;22237;51.974;4.616;2023-09-30T11:46:25;6.80;;;1.58;;
36195;SDS011;22237;51.974;4.616;2023-09-30T11:49:02;12.73;;;2.13;;
36195;SDS011;22237;51.974;4.616;2023-09-30T11:51:28;7.07;;;1.83;;
36195;SDS011;22237;51.974;4.616;2023-09-30T11:53:54;6.88;;;1.75;;
36195;SDS011;22237;51.974;4.616;2023-09-30T11:56:19;6.00;;;2.08;;
36195;SDS011;22237;51.974;4.616;2023-09-30T11:58:45;4.75;;;1.80;;
36195;SDS011;22237;51.974;4.616;2023-09-30T12:01:11;7.68;;;2.10;;
36195;SDS011;22237;51.974;4.616;2023-09-30T12:03:38;11.77;;;2.05;;
36195;SDS011;22237;51.974;4.616;2023-09-30T12:06:05;4.85;;;1.95;;
36195;SDS011;22237;51.974;4.616;2023-09-30T12:08:30;10.57;;;1.80;;
36195;SDS011;22237;51.974;4.616;2023-09-30T12:10:55;4.80;;;2.40;;
36195;SDS011;22237;51.974;4.616;2023-09-30T12:13:21;8.05;;;2.00;;
36195;SDS011;22237;51.974;4.616;2023-09-30T12:15:46;11.63;;;2.28;;
36195;SDS011;22237;51.974;4.616;2023-09-30T12:18:11;8.90;;;3.10;;
36195;SDS011;22237;51.974;4.616;2023-09-30T12:20:42;11.02;;;3.47;;
36195;SDS011;22237;51.974;4.616;2023-09-30T12:23:07;7.70;;;2.80;;
36195;SDS011;22237;51.974;4.616;2023-09-30T12:25:33;8.82;;;3.28;;
36195;SDS011;22237;51.974;4.616;2023-09-30T12:27:58;10.82;;;2.97;;
36195;SDS011;22237;51.974;4.616;2023-09-30T12:30:24;8.73;;;2.83;;
36195;SDS011;22237;51.974;4.616;2023-09-30T12:32:49;11.30;;;2.70;;
36195;SDS011;22237;51.974;4.616;2023-09-30T12:35:14;5.97;;;2.47;;
36195;SDS011;22237;51.974;4.616;2023-09-30T12:37:39;7.35;;;2.50;;
36195;SDS011;22237;51.974;4.616;2023-09-30T12:40:05;5.57;;;2.38;;
36195;SDS011;22237;51.974;4.616;2023-09-30T12:42:32;7.60;;;2.97;;
36195;SDS011;22237;51.974;4.616;2023-09-30T12:44:59;5.57;;;2.17;;
36195;SDS011;22237;51.974;4.616;2023-09-30T12:47:25;7.28;;;2.60;;
36195;SDS011;22237;51.974;4.616;2023-09-30T12:49:50;8.07;;;2.57;;
36195;SDS011;22237;51.974;4.616;2023-09-30T12:52:16;9.30;;;2.42;;
36195;SDS011;22237;51.974;4.616;2023-09-30T12:54:42;7.40;;;2.57;;
36195;SDS011;22237;51.974;4.616;2023-09-30T12:57:07;8.03;;;2.37;;
36195;SDS011;22237;51.974;4.616;2023-09-30T12:59:32;9.20;;;3.58;;
36195;SDS011;22237;51.974;4.616;2023-09-30T13:01:59;13.57;;;2.70;;
36195;SDS011;22237;51.974;4.616;2023-09-30T13:04:24;10.10;;;2.15;;
36195;SDS011;22237;51.974;4.616;2023-09-30T13:06:50;12.80;;;2.58;;
36195;SDS011;22237;51.974;4.616;2023-09-30T13:09:15;6.45;;;2.35;;
36195;SDS011;22237;51.974;4.616;2023-09-30T13:11:41;7.65;;;2.20;;
36195;SDS011;22237;51.974;4.616;2023-09-30T13:14:06;13.27;;;3.55;;
36195;SDS011;22237;51.974;4.616;2023-09-30T13:16:32;10.65;;;2.92;;
36195;SDS011;22237;51.974;4.616;2023-09-30T13:18:57;10.20;;;2.40;;
36195;SDS011;22237;51.974;4.616;2023-09-30T13:21:22;11.17;;;2.50;;
36195;SDS011;22237;51.974;4.616;2023-09-30T13:23:47;7.40;;;2.20;;
36195;SDS011;22237;51.974;4.616;2023-09-30T13:26:13;14.57;;;2.75;;
36195;SDS011;22237;51.974;4.616;2023-09-30T13:28:38;6.50;;;2.30;;
36195;SDS011;22237;51.974;4.616;2023-09-30T13:31:04;5.55;;;2.08;;
36195;SDS011;22237;51.974;4.616;2023-09-30T13:33:29;3.58;;;2.10;;
36195;SDS011;22237;51.974;4.616;2023-09-30T13:35:55;7.00;;;1.92;;
36195;SDS011;22237;51.974;4.616;2023-09-30T13:38:20;8.00;;;2.58;;
36195;SDS011;22237;51.974;4.616;2023-09-30T13:40:46;7.70;;;2.38;;
36195;SDS011;22237;51.974;4.616;2023-09-30T13:43:11;11.00;;;3.43;;
36195;SDS011;22237;51.974;4.616;2023-09-30T13:45:36;13.32;;;2.95;;
36195;SDS011;22237;51.974;4.616;2023-09-30T13:48:02;8.60;;;2.70;;
36195;SDS011;22237;51.974;4.616;2023-09-30T13:50:27;7.57;;;1.88;;
36195;SDS011;22237;51.974;4.616;2023-09-30T13:52:52;8.05;;;2.22;;
36195;SDS011;22237;51.974;4.616;2023-09-30T13:55:18;8.17;;;2.33;;
36195;SDS011;22237;51.974;4.616;2023-09-30T13:57:46;10.43;;;1.50;;
36195;SDS011;22237;51.974;4.616;2023-09-30T14:00:12;9.10;;;1.75;;
36195;SDS011;22237;51.974;4.616;2023-09-30T14:02:38;6.38;;;1.77;;
36195;SDS011;22237;51.974;4.616;2023-09-30T14:05:04;5.13;;;1.58;;
36195;SDS011;22237;51.974;4.616;2023-09-30T14:07:29;13.40;;;1.85;;
36195;SDS011;22237;51.974;4.616;2023-09-30T14:09:54;7.32;;;1.98;;
36195;SDS011;22237;51.974;4.616;2023-09-30T14:12:20;6.97;;;1.38;;
36195;SDS011;22237;51.974;4.616;2023-09-30T14:14:45;4.70;;;1.75;;
36195;SDS011;22237;51.974;4.616;2023-09-30T14:17:10;5.63;;;2.10;;
36195;SDS011;22237;51.974;4.616;2023-09-30T14:19:36;7.10;;;2.08;;
36195;SDS011;22237;51.974;4.616;2023-09-30T14:22:02;7.65;;;1.40;;
36195;SDS011;22237;51.974;4.616;2023-09-30T14:24:29;8.27;;;1.67;;
36195;SDS011;22237;51.974;4.616;2023-09-30T14:26:54;3.53;;;1.55;;
36195;SDS011;22237;51.974;4.616;2023-09-30T14:29:20;10.57;;;1.90;;
36195;SDS011;22237;51.974;4.616;2023-09-30T14:31:46;7.18;;;2.55;;
36195;SDS011;22237;51.974;4.616;2023-09-30T14:34:11;9.23;;;1.65;;
36195;SDS011;22237;51.974;4.616;2023-09-30T14:36:37;4.25;;;1.20;;
36195;SDS011;22237;51.974;4.616;2023-09-30T14:39:02;7.55;;;2.15;;
36195;SDS011;22237;51.974;4.616;2023-09-30T14:41:29;11.70;;;1.83;;
36195;SDS011;22237;51.974;4.616;2023-09-30T14:43:55;3.77;;;1.57;;
36195;SDS011;22237;51.974;4.616;2023-09-30T14:46:20;10.95;;;1.73;;
36195;SDS011;22237;51.974;4.616;2023-09-30T14:48:45;3.42;;;1.67;;